Sparta, TN

4:33 PM CDT on April 27, 2017 (GMT -0500)
Upper Cumberland Regional

Weather History for KSRB - April, 2013

Change the Weather History Date:

Thursday, April 11, 2013

  Actual Average (KCSV) Record (KCSV)
Temperature  
Mean Temperature 68 °F -  
Max Temperature 78 °F 66 °F 81 °F (1977)
Min Temperature 59 °F 42 °F 23 °F (1973)
Cooling Degree Days 4    
Growing Degree Days 18 (Base 50)    
Moisture  
Dew Point 58 °F    
Average Humidity 73    
Maximum Humidity 100    
Minimum Humidity 53    
Precipitation  
Precipitation 0.00 in - - ()
Sea Level Pressure  
Sea Level Pressure 29.75 in    
Wind  
Wind Speed 8 mph (South)    
Max Wind Speed 20 mph    
Max Gust Speed -    
Visibility 9 miles    
Events      
Averages and records for this station are not official NWS values.
T = Trace of Precipitation, MM = Missing Value Source: NWS Daily Summary

Daily Weather History Graph

Daily Weather History Graph

Search for Another Location

Airport or City:

Trip Planner

Search our weather history database for the weather conditions in past years. The results will help you decide how hot, cold, wet, or windy it might be!

Date:

Astronomy

Apr. 11, 2013 Rise Set
Actual Time 6:14 AM CDT 7:12 PM CDT
Civil Twilight 5:47 AM CDT 7:38 PM CDT
Nautical Twilight 5:16 AM CDT 8:10 PM CDT
Astronomical Twilight 4:44 AM CDT 8:42 PM CDT
Moon 6:47 AM CDT (4/11) 8:42 PM CDT (4/11)
Length of Visible Light 13h 51m
Length of Day
12h 58m
New Moon, 2% of the Moon is Illuminated
Apr 11
New Moon
Apr 18
First Quarter
Apr 25
Full
May 2
Last Quarter
May 9
New

Hourly Weather History & Observations

Time (CDT) Temp. Dew Point Humidity Pressure Visibility Wind Dir Wind Speed Gust Speed Precip Events Conditions
12:15 AM 68.0 °F 55.4 °F 64% 29.87 in 10.0 mi South 5.8 mph - N/A   Clear
12:35 AM 69.8 °F 55.4 °F 60% 29.87 in 10.0 mi South 6.9 mph - N/A   Clear
12:55 AM 69.8 °F 55.4 °F 60% 29.87 in 10.0 mi South 5.8 mph - N/A   Clear
1:15 AM 69.8 °F 55.4 °F 60% 29.86 in 10.0 mi South 6.9 mph - N/A   Clear
1:35 AM 69.8 °F 55.4 °F 60% 29.86 in 10.0 mi South 6.9 mph - N/A   Clear
1:55 AM 69.8 °F 55.4 °F 60% 29.85 in 10.0 mi South 6.9 mph - N/A   Clear
2:15 AM 69.8 °F 55.4 °F 60% 29.85 in 10.0 mi South 6.9 mph - N/A   Clear
2:35 AM 69.8 °F 55.4 °F 60% 29.84 in 10.0 mi South 5.8 mph - N/A   Clear
2:55 AM 68.0 °F 57.2 °F 68% 29.83 in 10.0 mi South 5.8 mph - N/A   Clear
3:15 AM 68.0 °F 55.4 °F 64% 29.83 in 10.0 mi South 8.1 mph - N/A   Clear
3:35 AM 66.2 °F 55.4 °F 68% 29.84 in 10.0 mi South 5.8 mph - N/A   Clear
3:55 AM 66.2 °F 55.4 °F 68% 29.84 in 10.0 mi South 6.9 mph - N/A   Clear
4:15 AM 66.2 °F 57.2 °F 73% 29.84 in 10.0 mi South 6.9 mph - N/A   Clear
4:35 AM 66.2 °F 55.4 °F 68% 29.84 in 10.0 mi South 6.9 mph - N/A   Clear
4:55 AM 66.2 °F 57.2 °F 73% 29.84 in 10.0 mi South 5.8 mph - N/A   Clear
5:15 AM 66.2 °F 57.2 °F 73% 29.85 in 10.0 mi SSW 5.8 mph - N/A   Clear
5:35 AM 66.2 °F 57.2 °F 73% 29.85 in 10.0 mi South 6.9 mph - N/A   Clear
5:55 AM 66.2 °F 57.2 °F 73% 29.85 in 10.0 mi SSW 6.9 mph - N/A   Clear
6:15 AM 66.2 °F 57.2 °F 73% 29.85 in 10.0 mi South 6.9 mph - N/A   Clear
6:35 AM 66.2 °F 57.2 °F 73% 29.84 in 10.0 mi South 6.9 mph - N/A   Clear
6:55 AM 66.2 °F 57.2 °F 73% 29.85 in 10.0 mi South 3.5 mph - N/A   Clear
7:15 AM 66.2 °F 57.2 °F 73% 29.84 in 10.0 mi SSE 8.1 mph - N/A   Clear
7:35 AM 66.2 °F 57.2 °F 73% 29.85 in 10.0 mi SSE 6.9 mph - N/A   Partly Cloudy
7:55 AM 66.2 °F 57.2 °F 73% 29.84 in 10.0 mi SSE 6.9 mph - N/A   Clear
8:15 AM 68.0 °F 57.2 °F 68% 29.84 in 10.0 mi South 4.6 mph - N/A   Clear
8:35 AM 69.8 °F 57.2 °F 64% 29.83 in 10.0 mi South 8.1 mph - N/A   Partly Cloudy
8:55 AM 69.8 °F 57.2 °F 64% 29.83 in 10.0 mi South 8.1 mph - N/A   Partly Cloudy
9:15 AM 71.6 °F 57.2 °F 60% 29.82 in 10.0 mi South 10.4 mph - N/A   Partly Cloudy
9:35 AM 71.6 °F 57.2 °F 60% 29.82 in 10.0 mi South 10.4 mph - N/A   Partly Cloudy
9:55 AM 71.6 °F 57.2 °F 60% 29.82 in 10.0 mi South 13.8 mph - N/A   Partly Cloudy
10:15 AM 73.4 °F 57.2 °F 57% 29.81 in 10.0 mi South 10.4 mph - N/A   Partly Cloudy
10:35 AM 75.2 °F 57.2 °F 53% 29.80 in 10.0 mi South 11.5 mph - N/A   Clear
10:55 AM 75.2 °F 57.2 °F 53% 29.80 in 10.0 mi South 10.4 mph - N/A   Clear
11:15 AM 75.2 °F 57.2 °F 53% 29.79 in 10.0 mi South 16.1 mph - N/A   Clear
11:35 AM 73.4 °F 57.2 °F 57% 29.79 in 10.0 mi South 11.5 mph - N/A   Mostly Cloudy
12:15 PM 73.4 °F 57.2 °F 57% 29.77 in 10.0 mi South 12.7 mph - N/A   Mostly Cloudy
12:35 PM 73.4 °F 57.2 °F 57% 29.75 in 10.0 mi South 13.8 mph - N/A   Scattered Clouds
12:55 PM 73.4 °F 57.2 °F 57% 29.73 in 10.0 mi South 9.2 mph - N/A   Partly Cloudy
1:15 PM 75.2 °F 59.0 °F 57% 29.71 in 10.0 mi South 10.4 mph - N/A   Clear
1:35 PM 75.2 °F 60.8 °F 61% 29.70 in 10.0 mi SSE 17.3 mph - N/A   Clear
1:55 PM 77.0 °F 60.8 °F 57% 29.69 in 10.0 mi South 19.6 mph - N/A   Partly Cloudy
2:15 PM 78.8 °F 60.8 °F 54% 29.68 in 10.0 mi South 18.4 mph - N/A   Scattered Clouds
2:35 PM 75.2 °F 60.8 °F 61% 29.67 in 10.0 mi South 17.3 mph - N/A   Partly Cloudy
2:55 PM 75.2 °F 60.8 °F 61% 29.65 in 10.0 mi South 15.0 mph - N/A   Partly Cloudy
3:15 PM 75.2 °F 59.0 °F 57% 29.65 in 10.0 mi South 12.7 mph - N/A   Mostly Cloudy
3:35 PM 75.2 °F 60.8 °F 61% 29.63 in 10.0 mi SSW 13.8 mph - N/A   Mostly Cloudy
3:55 PM 73.4 °F 62.6 °F 69% 29.66 in 5.0 mi SSW 19.6 mph - N/A   Overcast
4:15 PM 66.2 °F 64.4 °F 94% 29.67 in 3.0 mi SSW 12.7 mph - N/A   Mostly Cloudy
4:35 PM 66.2 °F 64.4 °F 94% 29.70 in 7.0 mi NW 12.7 mph - N/A   Overcast
4:55 PM 60.8 °F 59.0 °F 94% 29.68 in 3.0 mi North 8.1 mph - N/A   Mostly Cloudy
5:15 PM 60.8 °F 59.0 °F 94% 29.68 in 2.5 mi Variable 4.6 mph - N/A   Overcast
5:35 PM 59.0 °F 59.0 °F 100% 29.69 in 1.8 mi Variable 3.5 mph - N/A   Overcast
5:55 PM 59.0 °F 59.0 °F 100% 29.73 in 2.5 mi Calm Calm - N/A   Overcast
6:15 PM 59.0 °F 57.2 °F 94% 29.73 in 3.0 mi ENE 4.6 mph - N/A   Overcast
6:35 PM 59.0 °F 57.2 °F 94% 29.73 in 3.0 mi East 6.9 mph - N/A   Overcast
6:55 PM 59.0 °F 57.2 °F 94% 29.70 in 7.0 mi ENE 9.2 mph - N/A   Overcast
7:15 PM 59.0 °F 57.2 °F 94% 29.67 in 5.0 mi East 11.5 mph - N/A   Overcast
7:35 PM 59.0 °F 57.2 °F 94% 29.62 in 5.0 mi East 11.5 mph - N/A   Mostly Cloudy
7:55 PM 59.0 °F 57.2 °F 94% 29.63 in 10.0 mi SE 8.1 mph - N/A   Partly Cloudy
8:15 PM 59.0 °F 57.2 °F 94% 29.63 in 10.0 mi SE 3.5 mph - N/A   Scattered Clouds
8:35 PM 59.0 °F 57.2 °F 94% 29.62 in 10.0 mi SE 8.1 mph - N/A   Mostly Cloudy
8:55 PM 60.8 °F 57.2 °F 88% 29.61 in 10.0 mi SSE 8.1 mph - N/A   Partly Cloudy
9:15 PM 60.8 °F 57.2 °F 88% 29.63 in 10.0 mi South 8.1 mph - N/A   Mostly Cloudy
9:35 PM 60.8 °F 57.2 °F 88% 29.62 in 10.0 mi SSE 6.9 mph - N/A   Mostly Cloudy
9:55 PM 60.8 °F 57.2 °F 88% 29.58 in 10.0 mi SSE 11.5 mph - N/A   Scattered Clouds
10:15 PM 62.6 °F 57.2 °F 82% 29.59 in 10.0 mi South 10.4 mph - N/A   Scattered Clouds
10:35 PM 62.6 °F 59.0 °F 88% 29.57 in 10.0 mi South 9.2 mph - N/A   Mostly Cloudy
10:55 PM 62.6 °F 59.0 °F 88% 29.57 in 10.0 mi South 8.1 mph - N/A   Overcast
11:15 PM 62.6 °F 60.8 °F 94% 29.58 in 2.5 mi South 9.2 mph - N/A   Overcast
11:35 PM 60.8 °F 59.0 °F 94% 29.62 in 1.5 mi West 5.8 mph - N/A   Overcast
11:55 PM 59.0 °F 57.2 °F 94% 29.63 in 2.5 mi WNW 10.4 mph - N/A   Overcast